sensor_id;sensor_type;location;lat;lon;timestamp;P1;durP1;ratioP1;P2;durP2;ratioP2
16113;SDS011;8161;-33.910;151.156;2023-09-19T00:00:59;7.07;;;3.80;;
16113;SDS011;8161;-33.910;151.156;2023-09-19T00:03:26;6.32;;;3.72;;
16113;SDS011;8161;-33.910;151.156;2023-09-19T00:05:54;6.35;;;3.70;;
16113;SDS011;8161;-33.910;151.156;2023-09-19T00:08:21;5.38;;;3.78;;
16113;SDS011;8161;-33.910;151.156;2023-09-19T00:10:48;4.68;;;3.65;;
16113;SDS011;8161;-33.910;151.156;2023-09-19T00:13:15;5.72;;;3.80;;
16113;SDS011;8161;-33.910;151.156;2023-09-19T00:15:43;4.75;;;3.78;;
16113;SDS011;8161;-33.910;151.156;2023-09-19T00:18:14;6.73;;;3.83;;
16113;SDS011;8161;-33.910;151.156;2023-09-19T00:20:44;6.50;;;3.43;;
16113;SDS011;8161;-33.910;151.156;2023-09-19T00:23:13;6.55;;;3.92;;
16113;SDS011;8161;-33.910;151.156;2023-09-19T00:25:41;8.25;;;3.88;;
16113;SDS011;8161;-33.910;151.156;2023-09-19T00:28:08;5.93;;;3.80;;
16113;SDS011;8161;-33.910;151.156;2023-09-19T00:30:35;5.13;;;3.50;;
16113;SDS011;8161;-33.910;151.156;2023-09-19T00:33:04;4.80;;;3.85;;
16113;SDS011;8161;-33.910;151.156;2023-09-19T00:35:37;4.67;;;3.80;;
16113;SDS011;8161;-33.910;151.156;2023-09-19T00:38:04;5.68;;;4.07;;
16113;SDS011;8161;-33.910;151.156;2023-09-19T00:40:32;5.10;;;4.00;;
16113;SDS011;8161;-33.910;151.156;2023-09-19T00:43:00;5.75;;;3.92;;
16113;SDS011;8161;-33.910;151.156;2023-09-19T00:45:28;8.35;;;3.85;;
16113;SDS011;8161;-33.910;151.156;2023-09-19T00:47:55;6.32;;;4.00;;
16113;SDS011;8161;-33.910;151.156;2023-09-19T00:50:34;4.73;;;3.63;;
16113;SDS011;8161;-33.910;151.156;2023-09-19T00:53:02;8.07;;;3.80;;
16113;SDS011;8161;-33.910;151.156;2023-09-19T00:55:33;6.32;;;3.92;;
16113;SDS011;8161;-33.910;151.156;2023-09-19T00:58:03;5.97;;;3.70;;
16113;SDS011;8161;-33.910;151.156;2023-09-19T01:00:33;6.47;;;3.70;;
16113;SDS011;8161;-33.910;151.156;2023-09-19T01:03:00;5.47;;;4.00;;
16113;SDS011;8161;-33.910;151.156;2023-09-19T01:05:28;6.10;;;3.53;;
16113;SDS011;8161;-33.910;151.156;2023-09-19T01:07:55;4.97;;;3.63;;
16113;SDS011;8161;-33.910;151.156;2023-09-19T01:10:22;7.47;;;3.90;;
16113;SDS011;8161;-33.910;151.156;2023-09-19T01:15:47;6.57;;;3.75;;
16113;SDS011;8161;-33.910;151.156;2023-09-19T01:31:57;7.47;;;3.70;;
16113;SDS011;8161;-33.910;151.156;2023-09-19T01:37:14;6.47;;;3.50;;
16113;SDS011;8161;-33.910;151.156;2023-09-19T01:39:48;5.70;;;3.55;;
16113;SDS011;8161;-33.910;151.156;2023-09-19T01:42:27;4.83;;;3.50;;
16113;SDS011;8161;-33.910;151.156;2023-09-19T01:45:07;5.70;;;3.72;;
16113;SDS011;8161;-33.910;151.156;2023-09-19T01:47:37;6.43;;;3.60;;
16113;SDS011;8161;-33.910;151.156;2023-09-19T01:53:15;6.22;;;3.80;;
16113;SDS011;8161;-33.910;151.156;2023-09-19T01:55:49;5.68;;;3.50;;
16113;SDS011;8161;-33.910;151.156;2023-09-19T02:01:00;4.70;;;3.50;;
16113;SDS011;8161;-33.910;151.156;2023-09-19T02:03:27;6.65;;;3.83;;
16113;SDS011;8161;-33.910;151.156;2023-09-19T02:05:55;7.10;;;3.77;;
16113;SDS011;8161;-33.910;151.156;2023-09-19T02:08:22;6.28;;;3.45;;
16113;SDS011;8161;-33.910;151.156;2023-09-19T02:10:49;5.73;;;3.73;;
16113;SDS011;8161;-33.910;151.156;2023-09-19T02:13:18;4.95;;;3.60;;
16113;SDS011;8161;-33.910;151.156;2023-09-19T02:15:46;7.18;;;3.80;;
16113;SDS011;8161;-33.910;151.156;2023-09-19T02:18:16;11.05;;;3.95;;
16113;SDS011;8161;-33.910;151.156;2023-09-19T02:20:43;5.90;;;4.05;;
16113;SDS011;8161;-33.910;151.156;2023-09-19T02:23:11;4.05;;;3.60;;
16113;SDS011;8161;-33.910;151.156;2023-09-19T02:25:39;6.05;;;3.80;;
16113;SDS011;8161;-33.910;151.156;2023-09-19T02:28:06;4.05;;;3.65;;
16113;SDS011;8161;-33.910;151.156;2023-09-19T02:30:34;5.00;;;3.80;;
16113;SDS011;8161;-33.910;151.156;2023-09-19T02:33:02;4.75;;;3.95;;
16113;SDS011;8161;-33.910;151.156;2023-09-19T02:35:30;5.30;;;3.60;;
16113;SDS011;8161;-33.910;151.156;2023-09-19T02:38:02;6.70;;;3.80;;
16113;SDS011;8161;-33.910;151.156;2023-09-19T02:40:32;4.25;;;3.55;;
16113;SDS011;8161;-33.910;151.156;2023-09-19T02:43:05;6.18;;;3.50;;
16113;SDS011;8161;-33.910;151.156;2023-09-19T02:45:33;6.07;;;3.60;;
16113;SDS011;8161;-33.910;151.156;2023-09-19T02:48:01;5.75;;;3.63;;
16113;SDS011;8161;-33.910;151.156;2023-09-19T02:50:28;4.17;;;3.33;;
16113;SDS011;8161;-33.910;151.156;2023-09-19T02:52:55;6.47;;;3.70;;
16113;SDS011;8161;-33.910;151.156;2023-09-19T02:55:22;4.75;;;3.42;;
16113;SDS011;8161;-33.910;151.156;2023-09-19T02:57:50;6.45;;;3.53;;
16113;SDS011;8161;-33.910;151.156;2023-09-19T03:00:20;4.70;;;3.40;;
16113;SDS011;8161;-33.910;151.156;2023-09-19T03:02:52;4.78;;;3.60;;
16113;SDS011;8161;-33.910;151.156;2023-09-19T03:05:20;5.50;;;3.50;;
16113;SDS011;8161;-33.910;151.156;2023-09-19T03:07:49;4.60;;;3.50;;
16113;SDS011;8161;-33.910;151.156;2023-09-19T03:10:19;5.28;;;3.50;;
16113;SDS011;8161;-33.910;151.156;2023-09-19T03:12:47;4.68;;;3.72;;
16113;SDS011;8161;-33.910;151.156;2023-09-19T03:15:15;4.00;;;3.60;;
16113;SDS011;8161;-33.910;151.156;2023-09-19T03:17:43;4.50;;;3.70;;
16113;SDS011;8161;-33.910;151.156;2023-09-19T03:20:11;4.00;;;3.60;;
16113;SDS011;8161;-33.910;151.156;2023-09-19T03:22:46;4.95;;;3.70;;
16113;SDS011;8161;-33.910;151.156;2023-09-19T03:25:13;5.75;;;3.70;;
16113;SDS011;8161;-33.910;151.156;2023-09-19T03:27:42;4.68;;;3.65;;
16113;SDS011;8161;-33.910;151.156;2023-09-19T03:30:09;4.18;;;3.60;;
16113;SDS011;8161;-33.910;151.156;2023-09-19T03:32:47;3.97;;;3.53;;
16113;SDS011;8161;-33.910;151.156;2023-09-19T03:35:16;4.80;;;3.45;;
16113;SDS011;8161;-33.910;151.156;2023-09-19T03:37:45;6.00;;;3.70;;
16113;SDS011;8161;-33.910;151.156;2023-09-19T03:40:12;6.82;;;3.60;;
16113;SDS011;8161;-33.910;151.156;2023-09-19T03:42:41;6.50;;;4.20;;
16113;SDS011;8161;-33.910;151.156;2023-09-19T03:45:09;5.30;;;3.70;;
16113;SDS011;8161;-33.910;151.156;2023-09-19T03:47:40;6.13;;;3.70;;
16113;SDS011;8161;-33.910;151.156;2023-09-19T03:50:07;5.88;;;3.60;;
16113;SDS011;8161;-33.910;151.156;2023-09-19T03:52:36;5.45;;;3.58;;
16113;SDS011;8161;-33.910;151.156;2023-09-19T03:55:04;5.03;;;3.65;;
16113;SDS011;8161;-33.910;151.156;2023-09-19T03:57:31;5.00;;;3.90;;
16113;SDS011;8161;-33.910;151.156;2023-09-19T04:00:02;6.90;;;4.00;;
16113;SDS011;8161;-33.910;151.156;2023-09-19T04:02:30;4.80;;;3.67;;
16113;SDS011;8161;-33.910;151.156;2023-09-19T04:04:58;6.60;;;3.90;;
16113;SDS011;8161;-33.910;151.156;2023-09-19T04:07:26;6.07;;;3.80;;
16113;SDS011;8161;-33.910;151.156;2023-09-19T04:09:54;4.40;;;3.72;;
16113;SDS011;8161;-33.910;151.156;2023-09-19T04:12:21;4.10;;;3.70;;
16113;SDS011;8161;-33.910;151.156;2023-09-19T04:14:48;4.10;;;3.53;;
16113;SDS011;8161;-33.910;151.156;2023-09-19T04:17:16;9.25;;;3.50;;
16113;SDS011;8161;-33.910;151.156;2023-09-19T04:19:44;4.40;;;3.83;;
16113;SDS011;8161;-33.910;151.156;2023-09-19T04:22:11;6.22;;;3.78;;
16113;SDS011;8161;-33.910;151.156;2023-09-19T04:24:38;5.00;;;3.67;;
16113;SDS011;8161;-33.910;151.156;2023-09-19T04:27:05;5.68;;;3.60;;
16113;SDS011;8161;-33.910;151.156;2023-09-19T04:29:36;4.82;;;3.60;;
16113;SDS011;8161;-33.910;151.156;2023-09-19T04:32:05;5.18;;;3.83;;
16113;SDS011;8161;-33.910;151.156;2023-09-19T04:34:33;5.05;;;3.60;;
16113;SDS011;8161;-33.910;151.156;2023-09-19T04:37:00;6.50;;;3.72;;
16113;SDS011;8161;-33.910;151.156;2023-09-19T04:39:29;5.22;;;3.83;;
16113;SDS011;8161;-33.910;151.156;2023-09-19T04:41:56;5.05;;;3.45;;
16113;SDS011;8161;-33.910;151.156;2023-09-19T04:44:25;5.00;;;3.67;;
16113;SDS011;8161;-33.910;151.156;2023-09-19T04:46:55;5.15;;;3.88;;
16113;SDS011;8161;-33.910;151.156;2023-09-19T04:49:22;5.73;;;3.70;;
16113;SDS011;8161;-33.910;151.156;2023-09-19T04:51:49;4.88;;;3.90;;
16113;SDS011;8161;-33.910;151.156;2023-09-19T04:54:16;4.10;;;3.70;;
16113;SDS011;8161;-33.910;151.156;2023-09-19T04:56:43;6.25;;;3.90;;
16113;SDS011;8161;-33.910;151.156;2023-09-19T04:59:10;5.35;;;3.85;;
16113;SDS011;8161;-33.910;151.156;2023-09-19T05:01:38;3.80;;;3.40;;
16113;SDS011;8161;-33.910;151.156;2023-09-19T05:04:05;5.65;;;3.90;;
16113;SDS011;8161;-33.910;151.156;2023-09-19T05:06:32;5.10;;;3.70;;
16113;SDS011;8161;-33.910;151.156;2023-09-19T05:09:01;4.05;;;3.65;;
16113;SDS011;8161;-33.910;151.156;2023-09-19T05:11:30;5.80;;;3.83;;
16113;SDS011;8161;-33.910;151.156;2023-09-19T05:13:59;4.90;;;3.83;;
16113;SDS011;8161;-33.910;151.156;2023-09-19T05:16:29;6.43;;;3.67;;
16113;SDS011;8161;-33.910;151.156;2023-09-19T05:18:59;4.22;;;3.75;;
16113;SDS011;8161;-33.910;151.156;2023-09-19T05:21:27;15.95;;;8.32;;
16113;SDS011;8161;-33.910;151.156;2023-09-19T05:23:55;16.02;;;8.23;;
16113;SDS011;8161;-33.910;151.156;2023-09-19T05:26:23;17.73;;;8.25;;
16113;SDS011;8161;-33.910;151.156;2023-09-19T05:28:50;17.13;;;7.87;;
16113;SDS011;8161;-33.910;151.156;2023-09-19T05:31:18;18.10;;;8.48;;
16113;SDS011;8161;-33.910;151.156;2023-09-19T05:33:46;16.23;;;7.90;;
16113;SDS011;8161;-33.910;151.156;2023-09-19T05:36:13;19.87;;;8.27;;
16113;SDS011;8161;-33.910;151.156;2023-09-19T05:38:42;15.57;;;8.20;;
16113;SDS011;8161;-33.910;151.156;2023-09-19T05:41:10;17.00;;;8.50;;
16113;SDS011;8161;-33.910;151.156;2023-09-19T05:43:40;22.17;;;8.52;;
16113;SDS011;8161;-33.910;151.156;2023-09-19T05:46:08;20.83;;;8.55;;
16113;SDS011;8161;-33.910;151.156;2023-09-19T05:48:35;20.17;;;8.23;;
16113;SDS011;8161;-33.910;151.156;2023-09-19T05:51:05;19.13;;;8.25;;
16113;SDS011;8161;-33.910;151.156;2023-09-19T05:53:32;17.33;;;8.10;;
16113;SDS011;8161;-33.910;151.156;2023-09-19T05:55:59;20.27;;;8.40;;
16113;SDS011;8161;-33.910;151.156;2023-09-19T05:58:26;20.27;;;8.10;;
16113;SDS011;8161;-33.910;151.156;2023-09-19T06:00:54;18.95;;;7.57;;
16113;SDS011;8161;-33.910;151.156;2023-09-19T06:03:23;17.20;;;7.57;;
16113;SDS011;8161;-33.910;151.156;2023-09-19T06:05:50;22.40;;;8.07;;
16113;SDS011;8161;-33.910;151.156;2023-09-19T06:08:18;20.10;;;7.43;;
16113;SDS011;8161;-33.910;151.156;2023-09-19T06:10:46;20.45;;;8.02;;
16113;SDS011;8161;-33.910;151.156;2023-09-19T06:13:14;23.15;;;7.90;;
16113;SDS011;8161;-33.910;151.156;2023-09-19T06:15:41;18.58;;;7.40;;
16113;SDS011;8161;-33.910;151.156;2023-09-19T06:18:12;22.77;;;7.60;;
16113;SDS011;8161;-33.910;151.156;2023-09-19T06:20:46;19.40;;;7.65;;
16113;SDS011;8161;-33.910;151.156;2023-09-19T06:23:14;20.60;;;8.03;;
16113;SDS011;8161;-33.910;151.156;2023-09-19T06:25:41;18.50;;;7.35;;
16113;SDS011;8161;-33.910;151.156;2023-09-19T06:28:11;16.35;;;7.40;;
16113;SDS011;8161;-33.910;151.156;2023-09-19T06:30:39;18.75;;;7.20;;
16113;SDS011;8161;-33.910;151.156;2023-09-19T06:33:06;18.98;;;7.35;;
16113;SDS011;8161;-33.910;151.156;2023-09-19T06:35:34;18.10;;;7.20;;
16113;SDS011;8161;-33.910;151.156;2023-09-19T06:38:04;17.15;;;7.55;;
16113;SDS011;8161;-33.910;151.156;2023-09-19T06:40:36;21.77;;;7.40;;
16113;SDS011;8161;-33.910;151.156;2023-09-19T06:43:03;16.98;;;7.90;;
16113;SDS011;8161;-33.910;151.156;2023-09-19T06:45:32;17.60;;;7.13;;
16113;SDS011;8161;-33.910;151.156;2023-09-19T06:47:59;17.63;;;7.15;;
16113;SDS011;8161;-33.910;151.156;2023-09-19T06:50:28;15.27;;;6.83;;
16113;SDS011;8161;-33.910;151.156;2023-09-19T06:52:56;21.45;;;7.63;;
16113;SDS011;8161;-33.910;151.156;2023-09-19T06:55:25;19.75;;;7.90;;
16113;SDS011;8161;-33.910;151.156;2023-09-19T06:57:56;21.40;;;6.95;;
16113;SDS011;8161;-33.910;151.156;2023-09-19T07:00:24;24.45;;;7.72;;
16113;SDS011;8161;-33.910;151.156;2023-09-19T07:02:55;17.40;;;7.03;;
16113;SDS011;8161;-33.910;151.156;2023-09-19T07:05:22;19.17;;;7.10;;
16113;SDS011;8161;-33.910;151.156;2023-09-19T07:07:50;21.07;;;7.33;;
16113;SDS011;8161;-33.910;151.156;2023-09-19T07:10:17;23.52;;;7.82;;
16113;SDS011;8161;-33.910;151.156;2023-09-19T07:12:45;20.43;;;7.50;;
16113;SDS011;8161;-33.910;151.156;2023-09-19T07:15:12;21.45;;;7.88;;
16113;SDS011;8161;-33.910;151.156;2023-09-19T07:17:39;19.20;;;7.55;;
16113;SDS011;8161;-33.910;151.156;2023-09-19T07:20:06;19.23;;;7.07;;
16113;SDS011;8161;-33.910;151.156;2023-09-19T07:22:34;23.75;;;8.40;;
16113;SDS011;8161;-33.910;151.156;2023-09-19T07:25:04;19.05;;;7.28;;
16113;SDS011;8161;-33.910;151.156;2023-09-19T07:27:31;19.60;;;7.20;;
16113;SDS011;8161;-33.910;151.156;2023-09-19T07:29:59;23.77;;;7.15;;
16113;SDS011;8161;-33.910;151.156;2023-09-19T07:32:26;17.67;;;6.60;;
16113;SDS011;8161;-33.910;151.156;2023-09-19T07:34:53;19.05;;;7.10;;
16113;SDS011;8161;-33.910;151.156;2023-09-19T07:37:20;19.95;;;7.30;;
16113;SDS011;8161;-33.910;151.156;2023-09-19T07:39:48;21.05;;;7.47;;
16113;SDS011;8161;-33.910;151.156;2023-09-19T07:42:16;21.90;;;7.32;;
16113;SDS011;8161;-33.910;151.156;2023-09-19T07:44:43;21.58;;;7.45;;
16113;SDS011;8161;-33.910;151.156;2023-09-19T07:47:16;19.92;;;6.43;;
16113;SDS011;8161;-33.910;151.156;2023-09-19T07:49:46;27.13;;;8.07;;
16113;SDS011;8161;-33.910;151.156;2023-09-19T07:52:13;34.03;;;10.30;;
16113;SDS011;8161;-33.910;151.156;2023-09-19T07:54:41;22.17;;;7.57;;
16113;SDS011;8161;-33.910;151.156;2023-09-19T07:57:10;20.98;;;6.70;;
16113;SDS011;8161;-33.910;151.156;2023-09-19T07:59:37;19.38;;;7.57;;
16113;SDS011;8161;-33.910;151.156;2023-09-19T08:02:08;21.47;;;6.90;;
16113;SDS011;8161;-33.910;151.156;2023-09-19T08:04:44;23.88;;;7.05;;
16113;SDS011;8161;-33.910;151.156;2023-09-19T08:07:12;20.48;;;7.50;;
16113;SDS011;8161;-33.910;151.156;2023-09-19T08:09:39;21.77;;;6.90;;
16113;SDS011;8161;-33.910;151.156;2023-09-19T08:12:07;24.23;;;7.70;;
16113;SDS011;8161;-33.910;151.156;2023-09-19T08:14:36;23.23;;;8.00;;
16113;SDS011;8161;-33.910;151.156;2023-09-19T08:17:03;23.70;;;7.80;;
16113;SDS011;8161;-33.910;151.156;2023-09-19T08:19:31;21.45;;;6.97;;
16113;SDS011;8161;-33.910;151.156;2023-09-19T08:21:58;23.85;;;7.57;;
16113;SDS011;8161;-33.910;151.156;2023-09-19T08:24:25;27.15;;;7.20;;
16113;SDS011;8161;-33.910;151.156;2023-09-19T08:26:57;21.92;;;7.55;;
16113;SDS011;8161;-33.910;151.156;2023-09-19T08:29:25;21.70;;;7.20;;
16113;SDS011;8161;-33.910;151.156;2023-09-19T08:31:56;25.83;;;8.17;;
16113;SDS011;8161;-33.910;151.156;2023-09-19T08:34:24;19.95;;;7.35;;
16113;SDS011;8161;-33.910;151.156;2023-09-19T08:36:54;22.20;;;7.57;;
16113;SDS011;8161;-33.910;151.156;2023-09-19T08:39:25;21.00;;;7.78;;
16113;SDS011;8161;-33.910;151.156;2023-09-19T08:41:59;24.38;;;7.85;;
16113;SDS011;8161;-33.910;151.156;2023-09-19T08:44:26;24.77;;;7.68;;
16113;SDS011;8161;-33.910;151.156;2023-09-19T08:47:07;22.85;;;8.25;;
16113;SDS011;8161;-33.910;151.156;2023-09-19T08:52:27;23.70;;;7.65;;
16113;SDS011;8161;-33.910;151.156;2023-09-19T08:55:03;21.63;;;8.13;;
16113;SDS011;8161;-33.910;151.156;2023-09-19T08:57:35;25.37;;;8.53;;
16113;SDS011;8161;-33.910;151.156;2023-09-19T09:00:07;23.60;;;7.50;;
16113;SDS011;8161;-33.910;151.156;2023-09-19T09:02:40;27.00;;;8.38;;
16113;SDS011;8161;-33.910;151.156;2023-09-19T09:05:09;24.10;;;8.00;;
16113;SDS011;8161;-33.910;151.156;2023-09-19T09:07:37;23.50;;;8.27;;
16113;SDS011;8161;-33.910;151.156;2023-09-19T09:10:05;21.73;;;9.32;;
16113;SDS011;8161;-33.910;151.156;2023-09-19T09:12:34;25.70;;;8.50;;
16113;SDS011;8161;-33.910;151.156;2023-09-19T09:15:03;21.60;;;8.40;;
16113;SDS011;8161;-33.910;151.156;2023-09-19T09:17:30;26.42;;;8.65;;
16113;SDS011;8161;-33.910;151.156;2023-09-19T09:19:57;22.02;;;8.60;;
16113;SDS011;8161;-33.910;151.156;2023-09-19T09:22:30;26.77;;;9.38;;
16113;SDS011;8161;-33.910;151.156;2023-09-19T09:24:58;26.63;;;8.87;;
16113;SDS011;8161;-33.910;151.156;2023-09-19T09:27:29;26.75;;;9.55;;
16113;SDS011;8161;-33.910;151.156;2023-09-19T09:29:58;26.90;;;9.23;;
16113;SDS011;8161;-33.910;151.156;2023-09-19T09:32:26;23.20;;;8.32;;
16113;SDS011;8161;-33.910;151.156;2023-09-19T09:34:56;25.85;;;9.20;;
16113;SDS011;8161;-33.910;151.156;2023-09-19T09:37:23;26.23;;;9.90;;
16113;SDS011;8161;-33.910;151.156;2023-09-19T09:40:00;23.63;;;9.63;;
16113;SDS011;8161;-33.910;151.156;2023-09-19T09:42:41;22.20;;;8.85;;
16113;SDS011;8161;-33.910;151.156;2023-09-19T09:45:13;27.20;;;10.00;;
16113;SDS011;8161;-33.910;151.156;2023-09-19T09:47:54;28.20;;;8.82;;
16113;SDS011;8161;-33.910;151.156;2023-09-19T09:50:28;27.13;;;9.50;;
16113;SDS011;8161;-33.910;151.156;2023-09-19T09:53:23;24.13;;;8.88;;
16113;SDS011;8161;-33.910;151.156;2023-09-19T09:56:00;22.02;;;8.85;;
16113;SDS011;8161;-33.910;151.156;2023-09-19T09:58:51;25.27;;;9.27;;
16113;SDS011;8161;-33.910;151.156;2023-09-19T10:01:21;17.55;;;8.27;;
16113;SDS011;8161;-33.910;151.156;2023-09-19T10:03:56;22.13;;;8.95;;
16113;SDS011;8161;-33.910;151.156;2023-09-19T10:06:39;19.98;;;8.52;;
16113;SDS011;8161;-33.910;151.156;2023-09-19T10:09:13;18.08;;;8.55;;
16113;SDS011;8161;-33.910;151.156;2023-09-19T10:11:46;18.77;;;8.23;;
16113;SDS011;8161;-33.910;151.156;2023-09-19T10:14:24;22.65;;;8.60;;
16113;SDS011;8161;-33.910;151.156;2023-09-19T10:16:54;20.73;;;7.95;;
16113;SDS011;8161;-33.910;151.156;2023-09-19T10:19:30;21.13;;;7.97;;
16113;SDS011;8161;-33.910;151.156;2023-09-19T10:22:12;17.50;;;7.32;;
16113;SDS011;8161;-33.910;151.156;2023-09-19T10:24:46;15.33;;;6.93;;
16113;SDS011;8161;-33.910;151.156;2023-09-19T10:27:19;19.33;;;7.57;;
16113;SDS011;8161;-33.910;151.156;2023-09-19T10:29:50;18.83;;;7.63;;
16113;SDS011;8161;-33.910;151.156;2023-09-19T10:32:22;17.85;;;7.57;;
16113;SDS011;8161;-33.910;151.156;2023-09-19T10:34:50;18.08;;;7.70;;
16113;SDS011;8161;-33.910;151.156;2023-09-19T10:37:21;18.00;;;7.17;;
16113;SDS011;8161;-33.910;151.156;2023-09-19T10:39:51;16.27;;;7.07;;
16113;SDS011;8161;-33.910;151.156;2023-09-19T10:42:19;16.00;;;6.87;;
16113;SDS011;8161;-33.910;151.156;2023-09-19T10:44:51;22.65;;;7.35;;
16113;SDS011;8161;-33.910;151.156;2023-09-19T10:47:19;16.98;;;6.97;;
16113;SDS011;8161;-33.910;151.156;2023-09-19T10:49:49;18.88;;;7.43;;
16113;SDS011;8161;-33.910;151.156;2023-09-19T10:52:18;21.08;;;7.38;;
16113;SDS011;8161;-33.910;151.156;2023-09-19T10:54:50;17.65;;;7.35;;
16113;SDS011;8161;-33.910;151.156;2023-09-19T10:57:24;12.83;;;6.23;;
16113;SDS011;8161;-33.910;151.156;2023-09-19T11:00:03;14.55;;;7.15;;
16113;SDS011;8161;-33.910;151.156;2023-09-19T11:05:32;16.80;;;7.50;;
16113;SDS011;8161;-33.910;151.156;2023-09-19T11:07:59;14.20;;;6.35;;
16113;SDS011;8161;-33.910;151.156;2023-09-19T11:13:25;15.20;;;6.22;;
16113;SDS011;8161;-33.910;151.156;2023-09-19T11:26:48;16.38;;;6.97;;
16113;SDS011;8161;-33.910;151.156;2023-09-19T11:29:25;16.02;;;5.97;;
16113;SDS011;8161;-33.910;151.156;2023-09-19T11:31:53;13.93;;;5.78;;
16113;SDS011;8161;-33.910;151.156;2023-09-19T11:34:43;13.20;;;6.07;;
16113;SDS011;8161;-33.910;151.156;2023-09-19T11:39:40;13.45;;;5.22;;
16113;SDS011;8161;-33.910;151.156;2023-09-19T11:42:45;15.13;;;5.75;;
16113;SDS011;8161;-33.910;151.156;2023-09-19T11:48:04;13.63;;;5.77;;
16113;SDS011;8161;-33.910;151.156;2023-09-19T11:50:32;12.80;;;6.03;;
16113;SDS011;8161;-33.910;151.156;2023-09-19T11:53:00;14.10;;;5.78;;
16113;SDS011;8161;-33.910;151.156;2023-09-19T11:55:31;11.05;;;5.72;;
16113;SDS011;8161;-33.910;151.156;2023-09-19T11:58:00;14.00;;;4.97;;
16113;SDS011;8161;-33.910;151.156;2023-09-19T12:00:31;12.93;;;5.28;;
16113;SDS011;8161;-33.910;151.156;2023-09-19T12:03:01;17.17;;;5.40;;
16113;SDS011;8161;-33.910;151.156;2023-09-19T12:05:37;12.73;;;5.05;;
16113;SDS011;8161;-33.910;151.156;2023-09-19T12:08:05;16.58;;;5.32;;
16113;SDS011;8161;-33.910;151.156;2023-09-19T12:10:48;16.08;;;5.18;;
16113;SDS011;8161;-33.910;151.156;2023-09-19T12:13:21;12.00;;;5.10;;
16113;SDS011;8161;-33.910;151.156;2023-09-19T12:15:48;9.68;;;4.72;;
16113;SDS011;8161;-33.910;151.156;2023-09-19T12:20:56;13.52;;;5.25;;
16113;SDS011;8161;-33.910;151.156;2023-09-19T12:23:24;12.30;;;5.05;;
16113;SDS011;8161;-33.910;151.156;2023-09-19T12:25:52;10.68;;;5.25;;
16113;SDS011;8161;-33.910;151.156;2023-09-19T12:28:26;12.73;;;5.47;;
16113;SDS011;8161;-33.910;151.156;2023-09-19T12:31:06;9.52;;;5.00;;
16113;SDS011;8161;-33.910;151.156;2023-09-19T12:33:34;9.07;;;4.85;;
16113;SDS011;8161;-33.910;151.156;2023-09-19T12:36:18;13.00;;;5.43;;
16113;SDS011;8161;-33.910;151.156;2023-09-19T12:38:55;11.70;;;5.40;;
16113;SDS011;8161;-33.910;151.156;2023-09-19T12:41:25;12.55;;;5.88;;
16113;SDS011;8161;-33.910;151.156;2023-09-19T12:43:53;10.73;;;5.22;;
16113;SDS011;8161;-33.910;151.156;2023-09-19T12:46:21;8.85;;;5.30;;
16113;SDS011;8161;-33.910;151.156;2023-09-19T12:49:14;10.30;;;5.05;;
16113;SDS011;8161;-33.910;151.156;2023-09-19T12:51:47;8.95;;;5.32;;
16113;SDS011;8161;-33.910;151.156;2023-09-19T12:54:15;13.60;;;5.00;;
16113;SDS011;8161;-33.910;151.156;2023-09-19T12:56:43;8.50;;;4.40;;
16113;SDS011;8161;-33.910;151.156;2023-09-19T12:59:14;8.15;;;4.30;;
16113;SDS011;8161;-33.910;151.156;2023-09-19T13:01:42;8.87;;;4.83;;
16113;SDS011;8161;-33.910;151.156;2023-09-19T13:04:18;9.20;;;4.50;;
16113;SDS011;8161;-33.910;151.156;2023-09-19T13:06:57;8.93;;;4.50;;
16113;SDS011;8161;-33.910;151.156;2023-09-19T13:09:28;7.35;;;4.43;;
16113;SDS011;8161;-33.910;151.156;2023-09-19T13:12:01;8.05;;;4.55;;
16113;SDS011;8161;-33.910;151.156;2023-09-19T13:14:29;10.90;;;4.78;;
16113;SDS011;8161;-33.910;151.156;2023-09-19T13:17:05;7.65;;;4.60;;
16113;SDS011;8161;-33.910;151.156;2023-09-19T13:19:43;9.50;;;4.85;;
16113;SDS011;8161;-33.910;151.156;2023-09-19T13:25:22;7.50;;;4.23;;
16113;SDS011;8161;-33.910;151.156;2023-09-19T13:27:52;8.27;;;4.78;;
16113;SDS011;8161;-33.910;151.156;2023-09-19T13:30:23;8.82;;;4.80;;
16113;SDS011;8161;-33.910;151.156;2023-09-19T13:32:52;7.30;;;4.03;;
16113;SDS011;8161;-33.910;151.156;2023-09-19T13:35:31;7.93;;;4.35;;
16113;SDS011;8161;-33.910;151.156;2023-09-19T13:37:58;7.32;;;3.97;;
16113;SDS011;8161;-33.910;151.156;2023-09-19T13:40:26;6.75;;;4.30;;
16113;SDS011;8161;-33.910;151.156;2023-09-19T13:42:56;8.75;;;4.22;;
16113;SDS011;8161;-33.910;151.156;2023-09-19T13:45:23;5.63;;;3.85;;
16113;SDS011;8161;-33.910;151.156;2023-09-19T13:47:52;6.80;;;4.00;;
16113;SDS011;8161;-33.910;151.156;2023-09-19T13:50:19;6.53;;;4.10;;
16113;SDS011;8161;-33.910;151.156;2023-09-19T13:52:50;7.60;;;4.70;;
16113;SDS011;8161;-33.910;151.156;2023-09-19T13:55:17;5.63;;;4.03;;
16113;SDS011;8161;-33.910;151.156;2023-09-19T13:57:47;9.80;;;4.22;;
16113;SDS011;8161;-33.910;151.156;2023-09-19T14:00:21;6.90;;;4.57;;
16113;SDS011;8161;-33.910;151.156;2023-09-19T14:02:49;9.98;;;4.70;;
16113;SDS011;8161;-33.910;151.156;2023-09-19T14:05:16;6.50;;;4.47;;
16113;SDS011;8161;-33.910;151.156;2023-09-19T14:07:44;8.88;;;5.00;;
16113;SDS011;8161;-33.910;151.156;2023-09-19T14:10:12;7.80;;;5.10;;
16113;SDS011;8161;-33.910;151.156;2023-09-19T14:12:39;7.93;;;5.20;;
16113;SDS011;8161;-33.910;151.156;2023-09-19T14:15:10;7.65;;;4.85;;
16113;SDS011;8161;-33.910;151.156;2023-09-19T14:17:38;7.80;;;4.80;;
16113;SDS011;8161;-33.910;151.156;2023-09-19T14:20:08;6.65;;;4.63;;
16113;SDS011;8161;-33.910;151.156;2023-09-19T14:22:38;6.85;;;4.70;;
16113;SDS011;8161;-33.910;151.156;2023-09-19T14:25:05;8.30;;;4.85;;
16113;SDS011;8161;-33.910;151.156;2023-09-19T14:27:32;7.75;;;4.57;;
16113;SDS011;8161;-33.910;151.156;2023-09-19T14:30:00;8.15;;;4.80;;
16113;SDS011;8161;-33.910;151.156;2023-09-19T14:32:27;7.53;;;4.85;;
16113;SDS011;8161;-33.910;151.156;2023-09-19T14:34:57;6.85;;;4.72;;
16113;SDS011;8161;-33.910;151.156;2023-09-19T14:37:24;8.75;;;4.80;;
16113;SDS011;8161;-33.910;151.156;2023-09-19T14:39:54;8.07;;;4.80;;
16113;SDS011;8161;-33.910;151.156;2023-09-19T14:42:21;7.07;;;4.65;;
16113;SDS011;8161;-33.910;151.156;2023-09-19T14:44:48;6.47;;;4.70;;
16113;SDS011;8161;-33.910;151.156;2023-09-19T14:47:15;5.40;;;4.30;;
16113;SDS011;8161;-33.910;151.156;2023-09-19T14:49:43;8.97;;;4.50;;
16113;SDS011;8161;-33.910;151.156;2023-09-19T14:52:11;6.28;;;4.07;;
16113;SDS011;8161;-33.910;151.156;2023-09-19T14:54:41;5.07;;;4.00;;
16113;SDS011;8161;-33.910;151.156;2023-09-19T14:57:08;5.22;;;3.88;;
16113;SDS011;8161;-33.910;151.156;2023-09-19T14:59:35;5.18;;;4.07;;
16113;SDS011;8161;-33.910;151.156;2023-09-19T15:02:03;8.15;;;4.10;;
16113;SDS011;8161;-33.910;151.156;2023-09-19T15:04:31;7.18;;;3.75;;
16113;SDS011;8161;-33.910;151.156;2023-09-19T15:06:59;5.38;;;4.03;;
16113;SDS011;8161;-33.910;151.156;2023-09-19T15:09:36;7.50;;;4.07;;
16113;SDS011;8161;-33.910;151.156;2023-09-19T15:12:05;5.63;;;3.87;;
16113;SDS011;8161;-33.910;151.156;2023-09-19T15:14:33;4.75;;;3.60;;
16113;SDS011;8161;-33.910;151.156;2023-09-19T15:17:03;7.95;;;3.80;;
16113;SDS011;8161;-33.910;151.156;2023-09-19T15:19:42;5.27;;;3.73;;
16113;SDS011;8161;-33.910;151.156;2023-09-19T15:22:12;5.88;;;4.28;;
16113;SDS011;8161;-33.910;151.156;2023-09-19T15:24:39;6.03;;;3.72;;
16113;SDS011;8161;-33.910;151.156;2023-09-19T15:27:07;6.03;;;3.72;;